createdAt,value
2018-10-05T00:02:14.856Z,9.76
2018-10-05T00:04:44.646Z,9.77
2018-10-05T00:07:14.336Z,9.70
2018-10-05T00:09:44.068Z,9.83
2018-10-05T00:12:13.739Z,10.05
2018-10-05T00:14:43.623Z,10.14
2018-10-05T00:17:13.417Z,10.32
2018-10-05T00:19:43.163Z,10.33
2018-10-05T00:22:12.847Z,10.39
2018-10-05T00:24:42.586Z,10.39
2018-10-05T00:27:12.326Z,10.37
2018-10-05T00:29:42.051Z,10.35
2018-10-05T00:32:11.823Z,10.33
2018-10-05T00:34:41.452Z,10.30
2018-10-05T00:37:11.135Z,10.27
2018-10-05T00:39:40.920Z,10.35
2018-10-05T00:42:10.613Z,10.30
2018-10-05T00:44:40.379Z,10.23
2018-10-05T00:47:10.233Z,10.22
2018-10-05T00:49:39.992Z,10.26
2018-10-05T00:52:09.834Z,10.24
2018-10-05T00:54:42.316Z,10.22
2018-10-05T00:57:12.168Z,10.12
2018-10-05T00:59:42.033Z,10.13
2018-10-05T01:02:11.858Z,10.16
2018-10-05T01:04:41.874Z,10.08
2018-10-05T01:07:11.708Z,10.05
2018-10-05T01:09:41.408Z,10.00
2018-10-05T01:12:11.167Z,9.89
2018-10-05T01:14:41.842Z,9.76
2018-10-05T01:17:11.680Z,9.73
2018-10-05T01:19:41.490Z,9.62
2018-10-05T01:22:11.255Z,9.70
2018-10-05T01:24:41.511Z,9.66
2018-10-05T01:27:11.340Z,9.54
2018-10-05T01:29:41.067Z,9.60
2018-10-05T01:32:10.812Z,9.44
2018-10-05T01:34:41.161Z,9.42
2018-10-05T01:37:10.963Z,9.45
2018-10-05T01:39:40.702Z,9.42
2018-10-05T01:42:10.450Z,9.49
2018-10-05T01:44:40.240Z,9.48
2018-10-05T01:47:10.649Z,9.49
2018-10-05T01:49:40.556Z,9.33
2018-10-05T01:52:10.441Z,9.37
2018-10-05T01:54:40.176Z,9.33
2018-10-05T01:57:09.941Z,9.38
2018-10-05T01:59:39.725Z,9.54
2018-10-05T02:02:09.589Z,9.53
2018-10-05T02:04:39.362Z,9.49
2018-10-05T02:07:09.487Z,9.51
2018-10-05T02:09:39.256Z,9.54
2018-10-05T02:12:09.136Z,9.71
2018-10-05T02:14:38.898Z,9.63
2018-10-05T02:17:08.621Z,9.62
2018-10-05T02:19:38.661Z,9.45
2018-10-05T02:22:08.520Z,9.34
2018-10-05T02:24:38.504Z,9.22
2018-10-05T02:27:08.269Z,9.14
2018-10-05T02:29:38.054Z,8.98
2018-10-05T02:32:07.957Z,8.85
2018-10-05T02:34:38.359Z,8.75
2018-10-05T02:37:08.241Z,8.71
2018-10-05T02:39:37.899Z,8.64
2018-10-05T02:42:07.765Z,8.58
2018-10-05T02:44:37.632Z,8.54
2018-10-05T02:47:07.607Z,8.51
2018-10-05T02:49:37.349Z,8.66
2018-10-05T02:52:07.145Z,8.71
2018-10-05T02:54:36.928Z,8.81
2018-10-05T02:57:06.693Z,8.79
2018-10-05T02:59:36.447Z,8.84
2018-10-05T03:02:36.072Z,8.90
2018-10-05T03:05:06.123Z,8.95
2018-10-05T03:07:36.099Z,8.90
2018-10-05T03:10:05.875Z,8.88
2018-10-05T03:12:35.565Z,8.86
2018-10-05T03:15:05.307Z,8.88
2018-10-05T03:17:35.110Z,8.88
2018-10-05T03:20:04.861Z,8.81
2018-10-05T03:22:34.625Z,8.76
2018-10-05T03:25:05.050Z,8.69
2018-10-05T03:27:34.734Z,8.58
2018-10-05T03:30:04.478Z,8.49
2018-10-05T03:32:35.036Z,8.54
2018-10-05T03:35:04.966Z,8.55
2018-10-05T03:37:34.648Z,8.52
2018-10-05T03:40:04.661Z,8.45
2018-10-05T03:42:34.860Z,8.51
2018-10-05T03:45:04.707Z,8.44
2018-10-05T03:47:34.438Z,8.41
2018-10-05T03:50:04.317Z,8.53
2018-10-05T03:52:33.982Z,8.65
2018-10-05T03:55:04.431Z,8.68
2018-10-05T03:57:34.437Z,8.74
2018-10-05T04:00:04.166Z,8.80
2018-10-05T04:02:33.973Z,8.87
2018-10-05T04:05:03.879Z,8.91
2018-10-05T04:07:33.569Z,8.89
2018-10-05T04:10:03.379Z,9.05
2018-10-05T04:12:33.257Z,9.12
2018-10-05T04:15:03.069Z,9.08
2018-10-05T04:17:32.906Z,8.99
2018-10-05T04:20:02.682Z,9.00
2018-10-05T04:22:33.143Z,9.05
2018-10-05T04:25:03.017Z,9.08
2018-10-05T04:27:32.730Z,8.96
2018-10-05T04:30:02.441Z,8.95
2018-10-05T04:32:32.359Z,8.84
2018-10-05T04:35:02.065Z,8.92
2018-10-05T04:37:31.754Z,8.94
2018-10-05T04:40:01.704Z,8.85
2018-10-05T04:42:31.486Z,8.76
2018-10-05T04:45:01.258Z,8.84
2018-10-05T04:47:31.059Z,8.95
2018-10-05T04:50:00.750Z,9.06
2018-10-05T04:52:30.546Z,9.03
2018-10-05T04:55:00.218Z,9.02
2018-10-05T04:57:30.029Z,9.06
2018-10-05T04:59:59.819Z,9.08
2018-10-05T05:02:30.102Z,8.99
2018-10-05T05:04:59.828Z,8.95
2018-10-05T05:07:29.674Z,8.89
2018-10-05T05:10:00.388Z,8.92
2018-10-05T05:12:30.286Z,8.91
2018-10-05T05:15:00.206Z,9.02
2018-10-05T05:17:29.919Z,9.06
2018-10-05T05:19:59.715Z,9.06
2018-10-05T05:22:29.798Z,9.04
2018-10-05T05:24:59.562Z,8.95
2018-10-05T05:27:29.325Z,9.01
2018-10-05T05:29:59.089Z,9.05
2018-10-05T05:32:28.925Z,9.01
2018-10-05T05:34:58.794Z,9.04
2018-10-05T05:37:28.524Z,9.05
2018-10-05T05:39:58.329Z,9.21
2018-10-05T05:42:28.027Z,9.21
2018-10-05T05:44:58.336Z,9.19
2018-10-05T05:47:28.289Z,9.24
2018-10-05T05:49:57.954Z,9.34
2018-10-05T05:52:27.648Z,9.40
2018-10-05T05:54:57.510Z,9.39
2018-10-05T05:57:27.271Z,9.39
2018-10-05T05:59:57.066Z,9.34
2018-10-05T06:02:26.749Z,9.51
2018-10-05T06:04:56.669Z,9.36
2018-10-05T06:07:26.746Z,9.36
2018-10-05T06:09:56.440Z,9.61
2018-10-05T06:12:26.365Z,9.67
2018-10-05T06:14:56.188Z,9.61
2018-10-05T06:17:26.040Z,9.66
2018-10-05T06:19:55.944Z,9.65
2018-10-05T06:22:25.891Z,9.63
2018-10-05T06:24:55.583Z,9.80
2018-10-05T06:27:25.277Z,9.92
2018-10-05T06:29:54.978Z,9.83
2018-10-05T06:32:24.717Z,10.03
2018-10-05T06:34:55.161Z,10.08
2018-10-05T06:37:27.333Z,10.06
2018-10-05T06:39:57.412Z,10.34
2018-10-05T06:42:27.684Z,10.22
2018-10-05T06:44:57.850Z,10.40
2018-10-05T06:47:27.639Z,10.37
2018-10-05T06:49:57.470Z,10.48
2018-10-05T06:52:27.322Z,10.47
2018-10-05T06:54:57.025Z,10.57
2018-10-05T06:57:26.725Z,10.57
2018-10-05T06:59:56.411Z,10.86
2018-10-05T07:02:26.451Z,10.70
2018-10-05T07:04:56.110Z,10.88
2018-10-05T07:07:25.798Z,10.85
2018-10-05T07:09:55.652Z,10.98
2018-10-05T07:12:25.479Z,11.17
2018-10-05T07:14:55.194Z,11.12
2018-10-05T07:17:24.840Z,11.35
2018-10-05T07:19:54.497Z,11.35
2018-10-05T07:22:24.458Z,11.41
2018-10-05T07:24:54.334Z,11.36
2018-10-05T07:27:25.238Z,11.36
2018-10-05T07:29:55.053Z,11.42
2018-10-05T07:32:24.980Z,11.67
2018-10-05T07:34:54.755Z,11.86
2018-10-05T07:37:24.449Z,11.93
2018-10-05T07:39:54.499Z,12.00
2018-10-05T07:42:24.284Z,12.04
2018-10-05T07:44:53.962Z,12.18
2018-10-05T07:47:23.646Z,12.25
2018-10-05T07:49:53.582Z,12.35
2018-10-05T07:52:23.612Z,12.41
2018-10-05T07:54:53.278Z,12.46
2018-10-05T07:57:23.044Z,12.52
2018-10-05T07:59:52.744Z,12.82
2018-10-05T08:02:23.142Z,12.90
2018-10-05T08:04:52.832Z,13.15
2018-10-05T08:07:22.773Z,13.05
2018-10-05T08:09:52.574Z,13.26
2018-10-05T08:12:22.461Z,13.39
2018-10-05T08:14:52.289Z,13.60
2018-10-05T08:17:22.309Z,13.61
2018-10-05T08:19:52.137Z,13.72
2018-10-05T08:22:21.836Z,13.91
2018-10-05T08:24:51.622Z,13.97
2018-10-05T08:27:21.601Z,14.14
2018-10-05T08:29:51.458Z,14.36
2018-10-05T08:32:21.133Z,14.49
2018-10-05T08:34:51.057Z,14.67
2018-10-05T08:37:20.736Z,15.01
2018-10-05T08:39:50.565Z,15.05
2018-10-05T08:42:20.250Z,15.22
2018-10-05T08:44:49.953Z,15.46
2018-10-05T08:47:19.597Z,15.88
2018-10-05T08:49:49.322Z,15.91
2018-10-05T08:52:19.128Z,16.15
2018-10-05T08:54:48.722Z,16.09
2018-10-05T08:57:18.369Z,16.60
2018-10-05T08:59:48.027Z,16.63
2018-10-05T09:02:17.880Z,17.14
2018-10-05T09:04:47.689Z,17.85
2018-10-05T09:07:17.317Z,18.38
2018-10-05T09:09:47.025Z,19.10
2018-10-05T09:12:16.777Z,20.43
2018-10-05T09:14:46.442Z,20.94
2018-10-05T09:17:16.109Z,21.66
2018-10-05T09:19:45.909Z,21.99
2018-10-05T09:22:15.649Z,23.10
2018-10-05T09:24:45.472Z,22.93
2018-10-05T09:27:15.222Z,23.75
2018-10-05T09:29:44.969Z,22.94
2018-10-05T09:32:14.786Z,24.17
2018-10-05T09:34:44.409Z,24.45
2018-10-05T09:37:14.299Z,24.19
2018-10-05T09:39:43.919Z,24.35
2018-10-05T09:42:13.792Z,25.14
2018-10-05T09:44:43.457Z,24.89
2018-10-05T09:47:13.119Z,25.60
2018-10-05T09:49:42.840Z,26.15
2018-10-05T09:52:12.541Z,25.03
2018-10-05T09:54:42.238Z,25.12
2018-10-05T09:57:12.181Z,26.17
2018-10-05T09:59:41.891Z,25.64
2018-10-05T10:02:18.914Z,26.11
2018-10-05T10:04:48.691Z,25.47
2018-10-05T10:07:18.341Z,25.67
2018-10-05T10:09:47.997Z,26.06
2018-10-05T10:12:17.640Z,25.89
2018-10-05T10:14:47.373Z,24.91
2018-10-05T10:17:17.124Z,25.25
2018-10-05T10:19:46.807Z,25.18
2018-10-05T10:22:16.569Z,25.44
2018-10-05T10:24:46.203Z,26.35
2018-10-05T10:27:15.857Z,25.59
2018-10-05T10:29:45.778Z,26.16
2018-10-05T10:32:15.439Z,26.00
2018-10-05T10:34:45.149Z,26.16
2018-10-05T10:37:14.749Z,26.46
2018-10-05T10:39:44.501Z,26.47
2018-10-05T10:42:14.194Z,27.04
2018-10-05T10:44:43.900Z,26.56
2018-10-05T10:47:13.629Z,26.28
2018-10-05T10:49:43.353Z,25.83
2018-10-05T10:52:14.372Z,26.70
2018-10-05T10:54:44.089Z,27.54
2018-10-05T10:57:13.833Z,27.75
2018-10-05T10:59:43.488Z,26.84
2018-10-05T11:02:13.188Z,27.05
2018-10-05T11:04:42.967Z,27.43
2018-10-05T11:07:12.628Z,27.03
2018-10-05T11:09:42.329Z,27.16
2018-10-05T11:12:12.056Z,27.30
2018-10-05T11:14:41.793Z,26.49
2018-10-05T11:17:13.548Z,27.22
2018-10-05T11:19:43.213Z,26.28
2018-10-05T11:22:12.963Z,26.74
2018-10-05T11:24:42.787Z,26.20
2018-10-05T11:27:12.615Z,26.39
2018-10-05T11:29:42.645Z,26.05
2018-10-05T11:32:12.337Z,25.73
2018-10-05T11:34:42.037Z,25.73
2018-10-05T11:37:11.751Z,25.64
2018-10-05T11:39:41.486Z,25.28
2018-10-05T11:42:11.178Z,24.71
2018-10-05T11:44:40.870Z,25.62
2018-10-05T11:47:10.732Z,26.01
2018-10-05T11:49:40.381Z,25.68
2018-10-05T11:52:10.206Z,26.14
2018-10-05T11:54:39.873Z,25.90
2018-10-05T11:57:09.733Z,25.95
2018-10-05T11:59:39.662Z,25.99
2018-10-05T12:02:09.328Z,26.20
2018-10-05T12:04:38.994Z,25.70
2018-10-05T12:07:09.029Z,25.93
2018-10-05T12:09:38.730Z,25.47
2018-10-05T12:12:08.513Z,25.41
2018-10-05T12:14:38.213Z,25.28
2018-10-05T12:17:08.019Z,25.25
2018-10-05T12:19:37.718Z,25.29
2018-10-05T12:22:07.433Z,25.02
2018-10-05T12:24:37.120Z,24.97
2018-10-05T12:27:06.899Z,25.14
2018-10-05T12:29:36.562Z,25.34
2018-10-05T12:32:06.325Z,25.14
2018-10-05T12:34:36.070Z,25.29
2018-10-05T12:37:05.838Z,25.26
2018-10-05T12:39:35.620Z,25.36
2018-10-05T12:42:05.324Z,25.35
2018-10-05T12:44:35.020Z,25.49
2018-10-05T12:47:04.750Z,25.43
2018-10-05T12:49:34.409Z,25.33
2018-10-05T12:52:04.233Z,25.42
2018-10-05T12:54:33.960Z,25.42
2018-10-05T12:57:03.752Z,25.16
2018-10-05T12:59:33.465Z,25.23
2018-10-05T13:02:03.279Z,25.24
2018-10-05T13:04:33.006Z,25.29
2018-10-05T13:07:02.721Z,25.23
2018-10-05T13:09:32.417Z,25.33
2018-10-05T13:12:02.149Z,25.62
2018-10-05T13:14:31.856Z,25.55
2018-10-05T13:17:01.550Z,25.12
2018-10-05T13:19:31.252Z,25.35
2018-10-05T13:22:00.981Z,25.12
2018-10-05T13:24:30.963Z,24.86
2018-10-05T13:27:00.636Z,24.94
2018-10-05T13:29:30.394Z,25.11
2018-10-05T13:32:00.059Z,25.55
2018-10-05T13:34:29.926Z,25.52
2018-10-05T13:36:59.638Z,25.88
2018-10-05T13:39:29.332Z,25.69
2018-10-05T13:41:59.411Z,25.80
2018-10-05T13:44:29.009Z,25.73
2018-10-05T13:46:58.812Z,25.57
2018-10-05T13:49:28.583Z,25.71
2018-10-05T13:51:58.249Z,25.59
2018-10-05T13:54:27.925Z,25.42
2018-10-05T13:56:57.738Z,25.43
2018-10-05T13:59:27.425Z,25.40
2018-10-05T14:01:57.151Z,25.29
2018-10-05T14:04:26.849Z,25.16
2018-10-05T14:06:56.532Z,25.40
2018-10-05T14:09:26.402Z,25.35
2018-10-05T14:11:56.083Z,25.62
2018-10-05T14:14:25.904Z,25.47
2018-10-05T14:16:55.630Z,25.60
2018-10-05T14:19:25.578Z,25.17
2018-10-05T14:21:55.396Z,25.48
2018-10-05T14:24:25.098Z,25.46
2018-10-05T14:26:54.721Z,25.33
2018-10-05T14:29:24.450Z,25.77
2018-10-05T14:31:54.229Z,25.74
2018-10-05T14:34:23.975Z,25.46
2018-10-05T14:36:53.735Z,25.17
2018-10-05T14:39:23.434Z,25.21
2018-10-05T14:41:53.229Z,25.19
2018-10-05T14:44:22.905Z,25.25
2018-10-05T14:46:52.680Z,25.32
2018-10-05T14:49:22.487Z,24.85
2018-10-05T14:51:52.319Z,24.85
2018-10-05T14:54:22.061Z,24.86
2018-10-05T14:56:51.829Z,24.70
2018-10-05T14:59:21.702Z,24.62
2018-10-05T15:01:51.409Z,24.72
2018-10-05T15:04:21.265Z,24.75
2018-10-05T15:06:50.959Z,24.55
2018-10-05T15:09:20.797Z,24.69
2018-10-05T15:11:50.494Z,24.57
2018-10-05T15:14:20.285Z,24.56
2018-10-05T15:16:50.006Z,24.39
2018-10-05T15:19:19.779Z,24.30
2018-10-05T15:21:49.465Z,24.17
2018-10-05T15:24:19.204Z,23.96
2018-10-05T15:26:49.101Z,23.73
2018-10-05T15:29:18.753Z,24.01
2018-10-05T15:31:48.565Z,23.98
2018-10-05T15:34:18.265Z,23.60
2018-10-05T15:36:48.073Z,23.79
2018-10-05T15:39:17.809Z,24.26
2018-10-05T15:41:47.512Z,24.78
2018-10-05T15:44:17.306Z,24.74
2018-10-05T15:47:04.446Z,24.50
2018-10-05T15:49:34.708Z,23.52
2018-10-05T15:52:04.513Z,23.19
2018-10-05T15:54:34.236Z,22.66
2018-10-05T15:57:04.273Z,22.59
2018-10-05T15:59:34.824Z,22.31
2018-10-05T16:02:04.587Z,22.06
2018-10-05T16:04:34.274Z,21.92
2018-10-05T16:07:04.116Z,21.84
2018-10-05T16:09:33.848Z,21.75
2018-10-05T16:12:03.598Z,21.58
2018-10-05T16:14:33.465Z,21.54
2018-10-05T16:17:03.122Z,21.33
2018-10-05T16:19:33.093Z,21.16
2018-10-05T16:22:02.955Z,20.96
2018-10-05T16:24:37.662Z,21.06
2018-10-05T16:27:07.785Z,20.88
2018-10-05T16:29:37.843Z,20.96
2018-10-05T16:32:08.559Z,20.77
2018-10-05T16:34:38.434Z,20.61
2018-10-05T16:37:08.508Z,20.46
2018-10-05T16:39:38.185Z,20.23
2018-10-05T16:42:08.210Z,20.18
2018-10-05T16:44:37.990Z,19.98
2018-10-05T16:47:07.879Z,19.70
2018-10-05T16:49:37.581Z,19.50
2018-10-05T16:52:07.275Z,19.28
2018-10-05T16:54:36.987Z,19.06
2018-10-05T16:57:07.084Z,18.93
2018-10-05T16:59:36.748Z,18.94
2018-10-05T17:02:06.691Z,18.83
2018-10-05T17:04:36.429Z,18.75
2018-10-05T17:07:06.453Z,18.72
2018-10-05T17:09:36.341Z,18.59
2018-10-05T17:12:06.026Z,18.53
2018-10-05T17:14:35.744Z,18.42
2018-10-05T17:17:05.436Z,18.47
2018-10-05T17:19:35.150Z,18.48
2018-10-05T17:22:04.998Z,18.43
2018-10-05T17:24:34.926Z,18.22
2018-10-05T17:27:04.665Z,18.20
2018-10-05T17:29:34.489Z,18.04
2018-10-05T17:32:04.232Z,17.97
2018-10-05T17:34:34.193Z,17.77
2018-10-05T17:37:04.006Z,17.54
2018-10-05T17:39:33.671Z,17.38
2018-10-05T17:42:03.347Z,17.19
2018-10-05T17:44:33.034Z,17.03
2018-10-05T17:47:02.854Z,16.93
2018-10-05T17:49:32.650Z,16.79
2018-10-05T17:52:02.408Z,16.76
2018-10-05T17:54:32.240Z,16.87
2018-10-05T17:57:02.068Z,16.96
2018-10-05T17:59:31.849Z,16.85
2018-10-05T18:02:01.643Z,16.70
2018-10-05T18:04:31.278Z,16.61
2018-10-05T18:07:01.026Z,16.61
2018-10-05T18:09:30.943Z,16.50
2018-10-05T18:12:00.893Z,16.39
2018-10-05T18:14:30.636Z,16.31
2018-10-05T18:17:00.485Z,16.16
2018-10-05T18:19:30.413Z,15.97
2018-10-05T18:22:00.185Z,15.85
2018-10-05T18:24:30.076Z,15.82
2018-10-05T18:27:00.178Z,15.73
2018-10-05T18:29:29.937Z,15.68
2018-10-05T18:31:59.855Z,15.56
2018-10-05T18:34:29.683Z,15.52
2018-10-05T18:36:59.427Z,15.55
2018-10-05T18:39:29.122Z,15.52
2018-10-05T18:41:58.930Z,15.40
2018-10-05T18:44:28.642Z,15.32
2018-10-05T18:46:58.459Z,15.32
2018-10-05T18:49:28.457Z,15.25
2018-10-05T18:51:58.398Z,15.11
2018-10-05T18:54:28.380Z,15.00
2018-10-05T18:57:14.881Z,14.89
2018-10-05T18:59:44.935Z,14.91
2018-10-05T19:02:15.669Z,14.90
2018-10-05T19:04:45.999Z,14.96
2018-10-05T19:07:16.011Z,14.83
2018-10-05T19:09:45.854Z,14.77
2018-10-05T19:12:15.758Z,14.66
2018-10-05T19:14:45.646Z,14.47
2018-10-05T19:17:15.480Z,14.42
2018-10-05T19:19:45.313Z,14.44
2018-10-05T19:22:14.997Z,14.53
2018-10-05T19:24:44.793Z,14.89
2018-10-05T19:27:14.575Z,15.22
2018-10-05T19:29:44.403Z,15.06
2018-10-05T19:32:14.105Z,14.97
2018-10-05T19:34:43.910Z,14.80
2018-10-05T19:37:13.714Z,14.76
2018-10-05T19:39:43.513Z,14.59
2018-10-05T19:42:13.251Z,14.52
2018-10-05T19:44:42.920Z,14.38
2018-10-05T19:47:12.756Z,14.37
2018-10-05T19:49:42.575Z,14.36
2018-10-05T19:52:12.556Z,14.26
2018-10-05T19:54:42.438Z,14.23
2018-10-05T19:57:12.175Z,14.20
2018-10-05T19:59:41.894Z,14.19
2018-10-05T20:02:11.853Z,14.28
2018-10-05T20:04:41.463Z,14.33
2018-10-05T20:07:11.378Z,14.38
2018-10-05T20:09:41.131Z,14.33
2018-10-05T20:12:10.942Z,14.23
2018-10-05T20:14:40.717Z,14.14
2018-10-05T20:17:10.678Z,14.07
2018-10-05T20:19:40.529Z,13.92
2018-10-05T20:22:10.331Z,13.81
2018-10-05T20:24:40.175Z,13.81
2018-10-05T20:27:09.941Z,13.72
2018-10-05T20:29:39.863Z,13.76
2018-10-05T20:32:09.692Z,13.74
2018-10-05T20:34:39.540Z,13.70
2018-10-05T20:37:09.351Z,13.76
2018-10-05T20:39:38.989Z,13.83
2018-10-05T20:42:08.788Z,14.01
2018-10-05T20:44:38.648Z,13.88
2018-10-05T20:47:08.365Z,13.73
2018-10-05T20:49:38.078Z,13.60
2018-10-05T20:52:08.001Z,13.53
2018-10-05T20:54:37.716Z,13.41
2018-10-05T20:57:07.479Z,13.33
2018-10-05T20:59:37.400Z,13.24
2018-10-05T21:02:07.131Z,13.25
2018-10-05T21:04:36.908Z,13.32
2018-10-05T21:07:06.759Z,13.40
2018-10-05T21:09:36.659Z,13.40
2018-10-05T21:12:06.592Z,13.34
2018-10-05T21:14:36.492Z,13.30
2018-10-05T21:17:06.616Z,13.23
2018-10-05T21:19:36.417Z,13.36
2018-10-05T21:22:06.206Z,13.39
2018-10-05T21:24:35.933Z,13.42
2018-10-05T21:27:05.811Z,13.54
2018-10-05T21:29:35.552Z,13.48
2018-10-05T21:32:05.316Z,13.40
2018-10-05T21:34:35.094Z,13.41
2018-10-05T21:37:04.882Z,13.27
2018-10-05T21:39:34.613Z,13.23
2018-10-05T21:42:04.524Z,13.16
2018-10-05T21:44:34.380Z,13.25
2018-10-05T21:47:04.240Z,13.24
2018-10-05T21:49:33.960Z,13.29
2018-10-05T21:52:03.918Z,13.33
2018-10-05T21:54:33.762Z,13.20
2018-10-05T21:57:03.528Z,13.14
2018-10-05T21:59:33.317Z,13.08
2018-10-05T22:02:03.065Z,13.10
2018-10-05T22:04:32.800Z,12.99
2018-10-05T22:07:02.701Z,12.87
2018-10-05T22:09:32.585Z,12.79
2018-10-05T22:12:02.279Z,12.75
2018-10-05T22:14:32.031Z,12.64
2018-10-05T22:17:01.965Z,12.58
2018-10-05T22:19:31.891Z,12.49
2018-10-05T22:22:01.624Z,12.41
2018-10-05T22:24:31.815Z,12.45
2018-10-05T22:27:01.590Z,12.45
2018-10-05T22:29:31.356Z,12.46
2018-10-05T22:32:01.162Z,12.35
2018-10-05T22:34:30.968Z,12.24
2018-10-05T22:37:00.768Z,12.19
2018-10-05T22:39:30.724Z,12.15
2018-10-05T22:42:00.551Z,12.17
2018-10-05T22:44:30.284Z,12.13
2018-10-05T22:47:00.069Z,12.14
2018-10-05T22:49:29.782Z,12.20
2018-10-05T22:51:59.508Z,12.31
2018-10-05T22:54:29.283Z,12.37
2018-10-05T22:56:59.050Z,12.67
2018-10-05T22:59:28.949Z,12.89
2018-10-05T23:01:58.773Z,12.94
2018-10-05T23:04:28.490Z,13.01
2018-10-05T23:06:58.235Z,13.10
2018-10-05T23:09:28.162Z,13.07
2018-10-05T23:11:57.968Z,12.87
2018-10-05T23:14:27.793Z,12.64
2018-10-05T23:16:57.488Z,12.45
2018-10-05T23:19:27.184Z,12.33
2018-10-05T23:21:56.927Z,12.22
2018-10-05T23:24:26.730Z,12.09
2018-10-05T23:26:56.515Z,12.03
2018-10-05T23:29:26.263Z,11.97
2018-10-05T23:31:55.973Z,11.88
2018-10-05T23:34:25.702Z,11.79
2018-10-05T23:36:55.621Z,11.76
2018-10-05T23:39:25.452Z,11.79
2018-10-05T23:41:55.189Z,11.88
2018-10-05T23:44:24.885Z,11.87
2018-10-05T23:46:54.676Z,11.93
2018-10-05T23:49:24.432Z,11.94
2018-10-05T23:51:54.766Z,12.00
2018-10-05T23:54:24.552Z,12.18
2018-10-05T23:56:54.234Z,12.18
2018-10-05T23:59:24.069Z,12.33
